sensor_id;sensor_type;location;lat;lon;timestamp;P1;durP1;ratioP1;P2;durP2;ratioP2
15557;SDS011;7880;50.110;9.372;2022-10-29T00:00:02;9.76923076923077;;;3.3307692307692305;;
15557;SDS011;7880;50.110;9.372;2022-10-29T00:05:05;16.692307692307693;;;3.43076923076923;;
15557;SDS011;7880;50.110;9.372;2022-10-29T00:10:10;11.015384615384617;;;3.2;;
15557;SDS011;7880;50.110;9.372;2022-10-29T00:15:16;11.784615384615389;;;3.869230769230768;;
15557;SDS011;7880;50.110;9.372;2022-10-29T00:20:23;7.869230769230768;;;4.0;;
15557;SDS011;7880;50.110;9.372;2022-10-29T00:25:27;8.069230769230769;;;4.5;;
15557;SDS011;7880;50.110;9.372;2022-10-29T00:30:33;13.592307692307696;;;4.415384615384616;;
15557;SDS011;7880;50.110;9.372;2022-10-29T00:35:37;13.915384615384614;;;5.06923076923077;;
15557;SDS011;7880;50.110;9.372;2022-10-29T00:40:49;13.315384615384612;;;5.884615384615385;;
15557;SDS011;7880;50.110;9.372;2022-10-29T00:45:50;14.946153846153843;;;6.599999999999999;;
15557;SDS011;7880;50.110;9.372;2022-10-29T00:50:51;17.976923076923075;;;6.1;;
15557;SDS011;7880;50.110;9.372;2022-10-29T00:55:56;14.207692307692307;;;5.630769230769232;;
15557;SDS011;7880;50.110;9.372;2022-10-29T01:01:02;13.538461538461538;;;5.230769230769231;;
15557;SDS011;7880;50.110;9.372;2022-10-29T01:06:08;10.930769230769233;;;5.200000000000001;;
15557;SDS011;7880;50.110;9.372;2022-10-29T01:11:18;10.046153846153844;;;4.130769230769232;;
15557;SDS011;7880;50.110;9.372;2022-10-29T01:16:20;18.084615384615383;;;4.8999999999999995;;
15557;SDS011;7880;50.110;9.372;2022-10-29T01:21:33;13.984615384615385;;;4.5;;
15557;SDS011;7880;50.110;9.372;2022-10-29T01:26:42;8.223076923076924;;;4.499999999999999;;
15557;SDS011;7880;50.110;9.372;2022-10-29T01:31:59;13.761538461538464;;;4.3999999999999995;;
15557;SDS011;7880;50.110;9.372;2022-10-29T01:36:48;7.030769230769229;;;3.7307692307692295;;
15557;SDS011;7880;50.110;9.372;2022-10-29T01:41:52;7.269230769230769;;;4.200000000000001;;
15557;SDS011;7880;50.110;9.372;2022-10-29T01:47:04;14.10769230769231;;;4.200000000000001;;
15557;SDS011;7880;50.110;9.372;2022-10-29T01:52:01;10.26153846153846;;;4.323076923076924;;
15557;SDS011;7880;50.110;9.372;2022-10-29T01:57:22;12.253846153846151;;;3.9615384615384617;;
15557;SDS011;7880;50.110;9.372;2022-10-29T02:02:11;20.39230769230769;;;4.1000000000000005;;
15557;SDS011;7880;50.110;9.372;2022-10-29T02:07:18;13.138461538461543;;;4.5;;
15557;SDS011;7880;50.110;9.372;2022-10-29T02:12:21;13.976923076923075;;;4.3999999999999995;;
15557;SDS011;7880;50.110;9.372;2022-10-29T02:17:29;16.13076923076923;;;4.299999999999999;;
15557;SDS011;7880;50.110;9.372;2022-10-29T02:22:30;11.961538461538462;;;4.2615384615384615;;
15557;SDS011;7880;50.110;9.372;2022-10-29T02:27:39;18.73076923076923;;;5.361538461538462;;
15557;SDS011;7880;50.110;9.372;2022-10-29T02:32:38;15.615384615384611;;;4.730769230769231;;
15557;SDS011;7880;50.110;9.372;2022-10-29T02:38:08;8.907692307692308;;;4.16923076923077;;
15557;SDS011;7880;50.110;9.372;2022-10-29T02:43:13;8.469230769230771;;;4.3999999999999995;;
15557;SDS011;7880;50.110;9.372;2022-10-29T02:48:18;6.338461538461538;;;3.899999999999999;;
15557;SDS011;7880;50.110;9.372;2022-10-29T02:53:23;13.199999999999998;;;4.6000000000000005;;
15557;SDS011;7880;50.110;9.372;2022-10-29T02:58:27;11.746153846153849;;;4.3999999999999995;;
15557;SDS011;7880;50.110;9.372;2022-10-29T03:03:33;9.246153846153847;;;4.200000000000001;;
15557;SDS011;7880;50.110;9.372;2022-10-29T03:08:39;8.846153846153847;;;4.053846153846153;;
15557;SDS011;7880;50.110;9.372;2022-10-29T03:13:44;15.153846153846153;;;4.0;;
15557;SDS011;7880;50.110;9.372;2022-10-29T03:18:50;9.276923076923076;;;4.769230769230769;;
15557;SDS011;7880;50.110;9.372;2022-10-29T03:23:57;9.669230769230769;;;4.430769230769231;;
15557;SDS011;7880;50.110;9.372;2022-10-29T03:29:01;10.676923076923076;;;4.0307692307692315;;
15557;SDS011;7880;50.110;9.372;2022-10-29T03:34:06;8.36923076923077;;;4.299999999999999;;
15557;SDS011;7880;50.110;9.372;2022-10-29T03:39:14;11.430769230769233;;;5.53076923076923;;
15557;SDS011;7880;50.110;9.372;2022-10-29T03:44:16;12.469230769230771;;;6.330769230769231;;
15557;SDS011;7880;50.110;9.372;2022-10-29T03:49:24;10.915384615384617;;;4.830769230769231;;
15557;SDS011;7880;50.110;9.372;2022-10-29T03:54:27;8.13846153846154;;;5.03076923076923;;
15557;SDS011;7880;50.110;9.372;2022-10-29T03:59:33;12.015384615384617;;;3.5;;
15557;SDS011;7880;50.110;9.372;2022-10-29T04:04:39;11.661538461538461;;;4.561538461538462;;
15557;SDS011;7880;50.110;9.372;2022-10-29T04:08:11;11.876923076923076;;;4.369230769230769;;
15557;SDS011;7880;50.110;9.372;2022-10-29T04:13:17;9.646153846153846;;;4.8999999999999995;;
15557;SDS011;7880;50.110;9.372;2022-10-29T04:18:21;11.423076923076918;;;4.6692307692307695;;
15557;SDS011;7880;50.110;9.372;2022-10-29T04:23:27;14.99230769230769;;;5.200000000000001;;
15557;SDS011;7880;50.110;9.372;2022-10-29T04:28:33;10.092307692307694;;;4.961538461538461;;
15557;SDS011;7880;50.110;9.372;2022-10-29T04:33:38;14.007692307692306;;;4.530769230769231;;
15557;SDS011;7880;50.110;9.372;2022-10-29T04:38:51;12.70769230769231;;;4.238461538461538;;
15557;SDS011;7880;50.110;9.372;2022-10-29T04:43:50;7.1692307692307695;;;4.5;;
15557;SDS011;7880;50.110;9.372;2022-10-29T04:48:52;11.846153846153847;;;5.969230769230771;;
15557;SDS011;7880;50.110;9.372;2022-10-29T04:53:57;15.269230769230765;;;7.0;;
15557;SDS011;7880;50.110;9.372;2022-10-29T04:59:02;10.053846153846155;;;5.700000000000002;;
15557;SDS011;7880;50.110;9.372;2022-10-29T05:04:06;17.123076923076923;;;6.169230769230769;;
15557;SDS011;7880;50.110;9.372;2022-10-29T05:09:12;14.176923076923078;;;5.9;;
15557;SDS011;7880;50.110;9.372;2022-10-29T05:14:23;11.13846153846154;;;5.43076923076923;;
15557;SDS011;7880;50.110;9.372;2022-10-29T05:19:25;9.407692307692308;;;4.6000000000000005;;
15557;SDS011;7880;50.110;9.372;2022-10-29T05:24:28;13.669230769230769;;;5.06923076923077;;
15557;SDS011;7880;50.110;9.372;2022-10-29T05:29:39;9.969230769230771;;;4.299999999999999;;
15557;SDS011;7880;50.110;9.372;2022-10-29T05:34:38;14.946153846153843;;;4.5;;
15557;SDS011;7880;50.110;9.372;2022-10-29T05:39:44;9.769230769230768;;;4.430769230769231;;
15557;SDS011;7880;50.110;9.372;2022-10-29T05:44:49;7.984615384615383;;;4.430769230769231;;
15557;SDS011;7880;50.110;9.372;2022-10-29T05:49:54;11.77692307692308;;;4.8999999999999995;;
15557;SDS011;7880;50.110;9.372;2022-10-29T05:54:59;9.423076923076923;;;4.23076923076923;;
15557;SDS011;7880;50.110;9.372;2022-10-29T06:00:04;8.83846153846154;;;4.730769230769231;;
15557;SDS011;7880;50.110;9.372;2022-10-29T06:05:09;15.64615384615385;;;4.700000000000001;;
15557;SDS011;7880;50.110;9.372;2022-10-29T06:10:13;8.86923076923077;;;3.93076923076923;;
15557;SDS011;7880;50.110;9.372;2022-10-29T06:15:16;15.284615384615389;;;5.1000000000000005;;
15557;SDS011;7880;50.110;9.372;2022-10-29T06:20:21;9.42307692307692;;;5.161538461538462;;
15557;SDS011;7880;50.110;9.372;2022-10-29T06:25:27;9.338461538461539;;;5.138461538461538;;
15557;SDS011;7880;50.110;9.372;2022-10-29T06:30:31;12.915384615384617;;;7.038461538461538;;
15557;SDS011;7880;50.110;9.372;2022-10-29T06:35:35;20.907692307692304;;;9.530769230769229;;
15557;SDS011;7880;50.110;9.372;2022-10-29T06:40:41;15.069230769230767;;;8.63076923076923;;
15557;SDS011;7880;50.110;9.372;2022-10-29T06:45:50;15.099999999999996;;;9.33076923076923;;
15557;SDS011;7880;50.110;9.372;2022-10-29T06:50:49;15.253846153846151;;;9.469230769230771;;
15557;SDS011;7880;50.110;9.372;2022-10-29T06:55:54;13.115384615384615;;;7.0;;
15557;SDS011;7880;50.110;9.372;2022-10-29T07:00:59;11.653846153846159;;;4.8999999999999995;;
15557;SDS011;7880;50.110;9.372;2022-10-29T07:06:09;11.71538461538462;;;5.1692307692307695;;
15557;SDS011;7880;50.110;9.372;2022-10-29T07:11:10;9.669230769230769;;;4.2615384615384615;;
15557;SDS011;7880;50.110;9.372;2022-10-29T07:16:15;13.046153846153844;;;4.8999999999999995;;
15557;SDS011;7880;50.110;9.372;2022-10-29T07:21:21;14.27692307692308;;;5.299999999999999;;
15557;SDS011;7880;50.110;9.372;2022-10-29T07:26:34;9.076923076923077;;;4.469230769230769;;
15557;SDS011;7880;50.110;9.372;2022-10-29T07:31:33;9.038461538461538;;;4.6000000000000005;;
15557;SDS011;7880;50.110;9.372;2022-10-29T07:36:37;13.323076923076922;;;4.630769230769232;;
15557;SDS011;7880;50.110;9.372;2022-10-29T07:41:40;8.36153846153846;;;4.3999999999999995;;
15557;SDS011;7880;50.110;9.372;2022-10-29T07:46:51;13.5;;;4.892307692307691;;
15557;SDS011;7880;50.110;9.372;2022-10-29T07:51:54;12.976923076923072;;;5.53076923076923;;
15557;SDS011;7880;50.110;9.372;2022-10-29T07:56:57;8.33076923076923;;;5.369230769230768;;
15557;SDS011;7880;50.110;9.372;2022-10-29T08:02:03;21.861538461538462;;;6.06923076923077;;
15557;SDS011;7880;50.110;9.372;2022-10-29T08:07:06;12.076923076923082;;;6.169230769230769;;
15557;SDS011;7880;50.110;9.372;2022-10-29T08:12:12;12.115384615384615;;;4.961538461538461;;
15557;SDS011;7880;50.110;9.372;2022-10-29T08:17:15;9.730769230769234;;;5.8307692307692305;;
15557;SDS011;7880;50.110;9.372;2022-10-29T08:22:20;15.353846153846156;;;6.169230769230769;;
15557;SDS011;7880;50.110;9.372;2022-10-29T08:27:26;13.199999999999998;;;5.1000000000000005;;
15557;SDS011;7880;50.110;9.372;2022-10-29T08:32:31;8.707692307692309;;;5.1692307692307695;;
15557;SDS011;7880;50.110;9.372;2022-10-29T08:37:40;13.576923076923082;;;5.93076923076923;;
15557;SDS011;7880;50.110;9.372;2022-10-29T08:42:50;16.115384615384617;;;6.546153846153844;;
15557;SDS011;7880;50.110;9.372;2022-10-29T08:49:51;10.784615384615382;;;5.869230769230768;;
15557;SDS011;7880;50.110;9.372;2022-10-29T08:54:55;14.900000000000004;;;6.869230769230768;;
15557;SDS011;7880;50.110;9.372;2022-10-29T09:00:22;11.661538461538461;;;5.869230769230768;;
15557;SDS011;7880;50.110;9.372;2022-10-29T09:05:29;11.43846153846154;;;5.53076923076923;;
15557;SDS011;7880;50.110;9.372;2022-10-29T09:10:31;12.00769230769231;;;5.700000000000002;;
15557;SDS011;7880;50.110;9.372;2022-10-29T09:14:31;10.66923076923077;;;5.630769230769232;;
15557;SDS011;7880;50.110;9.372;2022-10-29T09:19:33;24.176923076923075;;;7.438461538461538;;
15557;SDS011;7880;50.110;9.372;2022-10-29T09:24:31;8.030769230769229;;;5.86153846153846;;
15557;SDS011;7880;50.110;9.372;2022-10-29T09:29:40;13.030769230769229;;;5.1000000000000005;;
15557;SDS011;7880;50.110;9.372;2022-10-29T09:34:40;23.015384615384615;;;6.830769230769231;;
15557;SDS011;7880;50.110;9.372;2022-10-29T09:39:48;10.592307692307692;;;6.092307692307691;;
15557;SDS011;7880;50.110;9.372;2022-10-29T09:45:03;11.069230769230767;;;5.361538461538462;;
15557;SDS011;7880;50.110;9.372;2022-10-29T09:50:05;12.292307692307691;;;5.5;;
15557;SDS011;7880;50.110;9.372;2022-10-29T09:55:02;12.876923076923076;;;6.076923076923077;;
15557;SDS011;7880;50.110;9.372;2022-10-29T10:00:12;14.36153846153846;;;5.061538461538462;;
15557;SDS011;7880;50.110;9.372;2022-10-29T10:05:13;13.453846153846156;;;5.730769230769231;;
15557;SDS011;7880;50.110;9.372;2022-10-29T10:10:19;12.146153846153847;;;5.1000000000000005;;
15557;SDS011;7880;50.110;9.372;2022-10-29T10:15:21;21.638461538461534;;;5.4;;
15557;SDS011;7880;50.110;9.372;2022-10-29T10:20:32;9.376923076923077;;;5.8307692307692305;;
15557;SDS011;7880;50.110;9.372;2022-10-29T10:25:32;11.315384615384614;;;5.823076923076924;;
15557;SDS011;7880;50.110;9.372;2022-10-29T10:30:36;10.930769230769233;;;5.86153846153846;;
15557;SDS011;7880;50.110;9.372;2022-10-29T10:35:35;11.646153846153847;;;5.261538461538462;;
15557;SDS011;7880;50.110;9.372;2022-10-29T10:40:39;13.646153846153844;;;4.799999999999999;;
15557;SDS011;7880;50.110;9.372;2022-10-29T10:45:50;11.446153846153843;;;5.06923076923077;;
15557;SDS011;7880;50.110;9.372;2022-10-29T10:50:50;12.346153846153847;;;4.869230769230769;;
15557;SDS011;7880;50.110;9.372;2022-10-29T10:55:57;19.88461538461538;;;5.53076923076923;;
15557;SDS011;7880;50.110;9.372;2022-10-29T11:01:02;12.82307692307692;;;5.5;;
15557;SDS011;7880;50.110;9.372;2022-10-29T11:06:23;9.36923076923077;;;5.700000000000002;;
15557;SDS011;7880;50.110;9.372;2022-10-29T11:11:12;17.023076923076925;;;5.56923076923077;;
15557;SDS011;7880;50.110;9.372;2022-10-29T11:16:19;15.353846153846156;;;5.1692307692307695;;
15557;SDS011;7880;50.110;9.372;2022-10-29T11:21:27;15.969230769230771;;;5.6;;
15557;SDS011;7880;50.110;9.372;2022-10-29T11:26:34;12.715384615384611;;;4.6000000000000005;;
15557;SDS011;7880;50.110;9.372;2022-10-29T11:31:35;9.753846153846153;;;5.200000000000001;;
15557;SDS011;7880;50.110;9.372;2022-10-29T11:36:39;8.299999999999999;;;4.530769230769231;;
15557;SDS011;7880;50.110;9.372;2022-10-29T11:41:45;11.230769230769226;;;4.430769230769231;;
15557;SDS011;7880;50.110;9.372;2022-10-29T11:46:55;14.476923076923072;;;5.5;;
15557;SDS011;7880;50.110;9.372;2022-10-29T11:51:58;15.60769230769231;;;4.430769230769231;;
15557;SDS011;7880;50.110;9.372;2022-10-29T11:57:02;12.546153846153846;;;5.200000000000001;;
15557;SDS011;7880;50.110;9.372;2022-10-29T12:02:13;7.900000000000001;;;4.430769230769231;;
15557;SDS011;7880;50.110;9.372;2022-10-29T12:07:18;9.407692307692308;;;4.96923076923077;;
15557;SDS011;7880;50.110;9.372;2022-10-29T12:12:18;13.415384615384614;;;4.730769230769231;;
15557;SDS011;7880;50.110;9.372;2022-10-29T12:17:23;15.123076923076924;;;4.799999999999999;;
15557;SDS011;7880;50.110;9.372;2022-10-29T12:22:31;14.853846153846156;;;4.369230769230769;;
15557;SDS011;7880;50.110;9.372;2022-10-29T12:27:34;19.23076923076923;;;5.03076923076923;;
15557;SDS011;7880;50.110;9.372;2022-10-29T12:32:40;10.83076923076923;;;4.0307692307692315;;
15557;SDS011;7880;50.110;9.372;2022-10-29T12:37:47;5.6;;;3.399999999999999;;
15557;SDS011;7880;50.110;9.372;2022-10-29T12:42:51;12.146153846153847;;;4.700000000000001;;
15557;SDS011;7880;50.110;9.372;2022-10-29T12:48:04;12.746153846153849;;;5.56923076923077;;
15557;SDS011;7880;50.110;9.372;2022-10-29T12:53:02;16.123076923076926;;;3.899999999999999;;
15557;SDS011;7880;50.110;9.372;2022-10-29T13:05:35;9.246153846153847;;;3.7692307692307705;;
15557;SDS011;7880;50.110;9.372;2022-10-29T13:10:52;12.10769230769231;;;4.200000000000001;;
15557;SDS011;7880;50.110;9.372;2022-10-29T13:15:36;6.799999999999998;;;3.7999999999999994;;
15557;SDS011;7880;50.110;9.372;2022-10-29T13:20:41;7.738461538461538;;;4.0;;
15557;SDS011;7880;50.110;9.372;2022-10-29T13:25:48;9.676923076923078;;;3.630769230769232;;
15557;SDS011;7880;50.110;9.372;2022-10-29T13:36:36;12.20769230769231;;;4.96923076923077;;
15557;SDS011;7880;50.110;9.372;2022-10-29T13:41:39;13.684615384615382;;;4.0;;
15557;SDS011;7880;50.110;9.372;2022-10-29T13:47:00;13.153846153846153;;;4.2384615384615385;;
15557;SDS011;7880;50.110;9.372;2022-10-29T13:51:57;11.307692307692308;;;4.33076923076923;;
15557;SDS011;7880;50.110;9.372;2022-10-29T13:57:04;8.469230769230771;;;4.0307692307692315;;
15557;SDS011;7880;50.110;9.372;2022-10-29T14:02:13;9.969230769230771;;;4.23076923076923;;
15557;SDS011;7880;50.110;9.372;2022-10-29T14:07:17;15.0;;;4.461538461538462;;
15557;SDS011;7880;50.110;9.372;2022-10-29T14:12:21;9.346153846153847;;;4.5;;
15557;SDS011;7880;50.110;9.372;2022-10-29T14:17:27;10.299999999999999;;;4.6000000000000005;;
15557;SDS011;7880;50.110;9.372;2022-10-29T14:22:35;9.284615384615384;;;4.3999999999999995;;
15557;SDS011;7880;50.110;9.372;2022-10-29T14:27:39;9.476923076923079;;;3.7999999999999994;;
15557;SDS011;7880;50.110;9.372;2022-10-29T14:32:49;9.49230769230769;;;4.838461538461538;;
15557;SDS011;7880;50.110;9.372;2022-10-29T14:37:49;13.046153846153844;;;4.869230769230769;;
15557;SDS011;7880;50.110;9.372;2022-10-29T14:42:53;19.707692307692312;;;4.93076923076923;;
15557;SDS011;7880;50.110;9.372;2022-10-29T14:48:07;12.3;;;4.430769230769231;;
15557;SDS011;7880;50.110;9.372;2022-10-29T14:53:05;11.869230769230775;;;5.0;;
15557;SDS011;7880;50.110;9.372;2022-10-29T14:58:15;10.146153846153844;;;5.06923076923077;;
15557;SDS011;7880;50.110;9.372;2022-10-29T15:03:13;11.246153846153847;;;4.3999999999999995;;
15557;SDS011;7880;50.110;9.372;2022-10-29T15:08:21;8.799999999999999;;;4.530769230769231;;
15557;SDS011;7880;50.110;9.372;2022-10-29T15:13:29;10.546153846153844;;;4.446153846153846;;
15557;SDS011;7880;50.110;9.372;2022-10-29T15:18:39;7.969230769230771;;;4.6692307692307695;;
15557;SDS011;7880;50.110;9.372;2022-10-29T15:23:34;12.469230769230771;;;3.969230769230769;;
15557;SDS011;7880;50.110;9.372;2022-10-29T15:28:43;9.538461538461538;;;4.96923076923077;;
15557;SDS011;7880;50.110;9.372;2022-10-29T15:33:50;12.261538461538464;;;4.8999999999999995;;
15557;SDS011;7880;50.110;9.372;2022-10-29T15:39:07;11.630769230769229;;;5.1000000000000005;;
15557;SDS011;7880;50.110;9.372;2022-10-29T15:44:10;9.107692307692309;;;4.869230769230769;;
15557;SDS011;7880;50.110;9.372;2022-10-29T15:49:13;6.63846153846154;;;3.7000000000000006;;
15557;SDS011;7880;50.110;9.372;2022-10-29T15:54:18;8.884615384615385;;;4.061538461538462;;
15557;SDS011;7880;50.110;9.372;2022-10-29T15:59:25;10.269230769230766;;;4.392307692307693;;
15557;SDS011;7880;50.110;9.372;2022-10-29T16:04:28;7.730769230769231;;;3.8307692307692305;;
15557;SDS011;7880;50.110;9.372;2022-10-29T16:09:33;9.438461538461537;;;4.461538461538462;;
15557;SDS011;7880;50.110;9.372;2022-10-29T16:14:38;7.900000000000001;;;4.6692307692307695;;
15557;SDS011;7880;50.110;9.372;2022-10-29T16:19:44;8.153846153846157;;;4.838461538461538;;
15557;SDS011;7880;50.110;9.372;2022-10-29T16:24:49;10.00769230769231;;;4.130769230769232;;
15557;SDS011;7880;50.110;9.372;2022-10-29T16:29:55;9.30769230769231;;;3.9384615384615387;;
15557;SDS011;7880;50.110;9.372;2022-10-29T16:35:01;12.176923076923076;;;4.200000000000001;;
15557;SDS011;7880;50.110;9.372;2022-10-29T16:40:08;9.523076923076925;;;4.130769230769232;;
15557;SDS011;7880;50.110;9.372;2022-10-29T16:45:15;10.884615384615385;;;4.769230769230769;;
15557;SDS011;7880;50.110;9.372;2022-10-29T16:50:26;6.992307692307695;;;4.0;;
15557;SDS011;7880;50.110;9.372;2022-10-29T16:55:27;9.038461538461538;;;4.369230769230769;;
15557;SDS011;7880;50.110;9.372;2022-10-29T17:00:35;7.961538461538459;;;4.1923076923076925;;
15557;SDS011;7880;50.110;9.372;2022-10-29T17:05:39;15.515384615384615;;;5.06923076923077;;
15557;SDS011;7880;50.110;9.372;2022-10-29T17:10:43;7.099999999999999;;;4.161538461538461;;
15557;SDS011;7880;50.110;9.372;2022-10-29T17:15:48;14.71538461538462;;;4.299999999999999;;
15557;SDS011;7880;50.110;9.372;2022-10-29T17:21:00;11.746153846153849;;;4.430769230769231;;
15557;SDS011;7880;50.110;9.372;2022-10-29T17:25:57;7.030769230769229;;;3.9230769230769242;;
15557;SDS011;7880;50.110;9.372;2022-10-29T17:31:03;10.476923076923075;;;4.6000000000000005;;
15557;SDS011;7880;50.110;9.372;2022-10-29T17:36:07;10.884615384615389;;;4.730769230769231;;
15557;SDS011;7880;50.110;9.372;2022-10-29T17:41:11;13.00769230769231;;;4.130769230769232;;
15557;SDS011;7880;50.110;9.372;2022-10-29T17:46:17;9.184615384615382;;;4.553846153846153;;
15557;SDS011;7880;50.110;9.372;2022-10-29T17:51:18;10.746153846153849;;;4.96923076923077;;
15557;SDS011;7880;50.110;9.372;2022-10-29T17:56:29;10.469230769230771;;;4.430769230769231;;
15557;SDS011;7880;50.110;9.372;2022-10-29T18:01:32;9.807692307692308;;;4.3999999999999995;;
15557;SDS011;7880;50.110;9.372;2022-10-29T18:06:31;15.64615384615385;;;4.799999999999999;;
15557;SDS011;7880;50.110;9.372;2022-10-29T18:11:36;18.153846153846153;;;5.0;;
15557;SDS011;7880;50.110;9.372;2022-10-29T18:16:41;8.246153846153845;;;4.96923076923077;;
15557;SDS011;7880;50.110;9.372;2022-10-29T18:21:47;9.661538461538463;;;5.361538461538462;;
15557;SDS011;7880;50.110;9.372;2022-10-29T18:26:55;11.876923076923076;;;5.4;;
15557;SDS011;7880;50.110;9.372;2022-10-29T18:32:00;11.376923076923076;;;6.900000000000001;;
15557;SDS011;7880;50.110;9.372;2022-10-29T18:37:05;9.93846153846154;;;5.1692307692307695;;
15557;SDS011;7880;50.110;9.372;2022-10-29T18:42:09;13.469230769230771;;;5.299999999999999;;
15557;SDS011;7880;50.110;9.372;2022-10-29T18:47:14;9.638461538461538;;;4.700000000000001;;
15557;SDS011;7880;50.110;9.372;2022-10-29T18:52:19;6.692307692307694;;;5.130769230769232;;
15557;SDS011;7880;50.110;9.372;2022-10-29T18:57:24;9.376923076923076;;;4.299999999999999;;
15557;SDS011;7880;50.110;9.372;2022-10-29T19:02:30;6.323076923076922;;;4.630769230769232;;
15557;SDS011;7880;50.110;9.372;2022-10-29T19:07:35;9.238461538461538;;;4.200000000000001;;
15557;SDS011;7880;50.110;9.372;2022-10-29T19:12:43;8.407692307692308;;;4.1000000000000005;;
15557;SDS011;7880;50.110;9.372;2022-10-29T19:17:45;11.207692307692307;;;5.1000000000000005;;
15557;SDS011;7880;50.110;9.372;2022-10-29T19:22:51;12.146153846153847;;;5.4;;
15557;SDS011;7880;50.110;9.372;2022-10-29T19:26:47;9.669230769230769;;;5.738461538461537;;
15557;SDS011;7880;50.110;9.372;2022-10-29T19:31:52;16.115384615384613;;;5.630769230769232;;
15557;SDS011;7880;50.110;9.372;2022-10-29T19:36:55;10.56153846153846;;;5.299999999999999;;
15557;SDS011;7880;50.110;9.372;2022-10-29T19:42:05;10.10769230769231;;;5.869230769230768;;
15557;SDS011;7880;50.110;9.372;2022-10-29T19:47:08;10.276923076923076;;;4.200000000000001;;
15557;SDS011;7880;50.110;9.372;2022-10-29T19:52:15;9.807692307692308;;;5.092307692307691;;
15557;SDS011;7880;50.110;9.372;2022-10-29T19:57:19;11.27692307692308;;;4.130769230769232;;
15557;SDS011;7880;50.110;9.372;2022-10-29T20:02:26;10.553846153846155;;;3.761538461538461;;
15557;SDS011;7880;50.110;9.372;2022-10-29T20:07:38;12.484615384615385;;;4.33076923076923;;
15557;SDS011;7880;50.110;9.372;2022-10-29T20:12:54;10.246153846153847;;;4.269230769230769;;
15557;SDS011;7880;50.110;9.372;2022-10-29T20:17:46;5.06923076923077;;;3.6692307692307695;;
15557;SDS011;7880;50.110;9.372;2022-10-29T20:22:51;6.592307692307691;;;4.0307692307692315;;
15557;SDS011;7880;50.110;9.372;2022-10-29T20:27:57;8.876923076923077;;;4.200000000000001;;
15557;SDS011;7880;50.110;9.372;2022-10-29T20:33:01;5.692307692307694;;;4.33076923076923;;
15557;SDS011;7880;50.110;9.372;2022-10-29T20:38:06;9.076923076923077;;;4.1000000000000005;;
15557;SDS011;7880;50.110;9.372;2022-10-29T20:43:16;14.27692307692308;;;4.569230769230769;;
15557;SDS011;7880;50.110;9.372;2022-10-29T20:48:18;11.576923076923082;;;4.730769230769231;;
15557;SDS011;7880;50.110;9.372;2022-10-29T20:53:24;8.592307692307692;;;3.600000000000001;;
15557;SDS011;7880;50.110;9.372;2022-10-29T20:58:35;8.76923076923077;;;4.0;;
15557;SDS011;7880;50.110;9.372;2022-10-29T21:03:33;7.776923076923077;;;3.369230769230768;;
15557;SDS011;7880;50.110;9.372;2022-10-29T21:08:53;8.599999999999998;;;3.7999999999999994;;
15557;SDS011;7880;50.110;9.372;2022-10-29T21:13:41;9.407692307692308;;;4.1000000000000005;;
15557;SDS011;7880;50.110;9.372;2022-10-29T21:18:46;7.869230769230768;;;4.130769230769232;;
15557;SDS011;7880;50.110;9.372;2022-10-29T21:23:57;9.86923076923077;;;3.630769230769232;;
15557;SDS011;7880;50.110;9.372;2022-10-29T21:28:58;10.215384615384616;;;4.06923076923077;;
15557;SDS011;7880;50.110;9.372;2022-10-29T21:34:03;6.061538461538462;;;3.030769230769231;;
15557;SDS011;7880;50.110;9.372;2022-10-29T21:39:08;6.407692307692309;;;3.869230769230768;;
15557;SDS011;7880;50.110;9.372;2022-10-29T21:44:14;10.076923076923078;;;4.1000000000000005;;
15557;SDS011;7880;50.110;9.372;2022-10-29T21:49:25;9.86923076923077;;;3.8307692307692305;;
15557;SDS011;7880;50.110;9.372;2022-10-29T21:54:27;8.876923076923076;;;3.7999999999999994;;
15557;SDS011;7880;50.110;9.372;2022-10-29T21:59:32;5.969230769230771;;;4.0;;
15557;SDS011;7880;50.110;9.372;2022-10-29T22:04:38;6.89230769230769;;;3.5;;
15557;SDS011;7880;50.110;9.372;2022-10-29T22:09:43;6.430769230769233;;;4.0;;
15557;SDS011;7880;50.110;9.372;2022-10-29T22:14:49;4.96923076923077;;;3.0;;
15557;SDS011;7880;50.110;9.372;2022-10-29T22:19:55;8.938461538461539;;;3.600000000000001;;
15557;SDS011;7880;50.110;9.372;2022-10-29T22:25:06;7.876923076923077;;;3.5;;
15557;SDS011;7880;50.110;9.372;2022-10-29T22:30:12;4.961538461538461;;;3.3307692307692305;;
15557;SDS011;7880;50.110;9.372;2022-10-29T22:35:15;7.838461538461539;;;3.3307692307692305;;
15557;SDS011;7880;50.110;9.372;2022-10-29T22:40:21;8.484615384615385;;;4.1000000000000005;;